Terminal Aerodrome Forecast
Issued by NWS Wilmington, OH

Home | Current Version | Previous Version | Text Only | Print | Product List | Glossary On
Versions: 1 2 3 4 5 6 7 8 9 10 11 12 13 14 15 16 17 18 19 20
000
FTUS41 KILN 231130
TAFILN
TAF
KILN 231130Z 2312/2412 00000KT 4SM BR FEW009 SCT250
     FM231300 23005KT P6SM FEW040 SCT250
     FM240100 00000KT P6SM SCT250
     FM240600 00000KT 4SM BR SCT250
      TEMPO 2407/2411 1SM BR=

USA.gov is the U.S. government's official web portal to all federal, state and local government web resources and services.